sensor_id;sensor_type;location;lat;lon;timestamp;P1;durP1;ratioP1;P2;durP2;ratioP2
11187;SDS011;5650;52.700;7.306;2023-04-03T00:01:48;5.22;;;1.85;;
11187;SDS011;5650;52.700;7.306;2023-04-03T00:04:15;5.53;;;1.70;;
11187;SDS011;5650;52.700;7.306;2023-04-03T00:06:50;5.38;;;2.33;;
11187;SDS011;5650;52.700;7.306;2023-04-03T00:09:18;6.40;;;2.30;;
11187;SDS011;5650;52.700;7.306;2023-04-03T00:11:45;7.85;;;2.10;;
11187;SDS011;5650;52.700;7.306;2023-04-03T00:14:12;6.15;;;2.17;;
11187;SDS011;5650;52.700;7.306;2023-04-03T00:16:42;3.90;;;2.00;;
11187;SDS011;5650;52.700;7.306;2023-04-03T00:19:16;5.88;;;2.25;;
11187;SDS011;5650;52.700;7.306;2023-04-03T00:21:43;6.85;;;2.22;;
11187;SDS011;5650;52.700;7.306;2023-04-03T00:24:14;5.82;;;2.13;;
11187;SDS011;5650;52.700;7.306;2023-04-03T00:26:42;5.00;;;1.88;;
11187;SDS011;5650;52.700;7.306;2023-04-03T00:29:14;16.42;;;2.40;;
11187;SDS011;5650;52.700;7.306;2023-04-03T00:31:41;4.70;;;2.15;;
11187;SDS011;5650;52.700;7.306;2023-04-03T00:34:08;6.38;;;2.13;;
11187;SDS011;5650;52.700;7.306;2023-04-03T00:36:41;5.75;;;2.20;;
11187;SDS011;5650;52.700;7.306;2023-04-03T00:39:16;4.45;;;2.03;;
11187;SDS011;5650;52.700;7.306;2023-04-03T00:41:43;7.03;;;2.08;;
11187;SDS011;5650;52.700;7.306;2023-04-03T00:44:20;3.72;;;2.15;;
11187;SDS011;5650;52.700;7.306;2023-04-03T00:46:48;5.38;;;2.20;;
11187;SDS011;5650;52.700;7.306;2023-04-03T00:49:21;8.40;;;2.13;;
11187;SDS011;5650;52.700;7.306;2023-04-03T00:51:58;5.50;;;2.10;;
11187;SDS011;5650;52.700;7.306;2023-04-03T00:54:27;5.57;;;1.90;;
11187;SDS011;5650;52.700;7.306;2023-04-03T00:56:55;4.63;;;2.28;;
11187;SDS011;5650;52.700;7.306;2023-04-03T00:59:27;5.55;;;2.30;;
11187;SDS011;5650;52.700;7.306;2023-04-03T01:01:57;6.25;;;2.53;;
11187;SDS011;5650;52.700;7.306;2023-04-03T01:04:29;6.57;;;2.20;;
11187;SDS011;5650;52.700;7.306;2023-04-03T01:07:01;5.57;;;2.30;;
11187;SDS011;5650;52.700;7.306;2023-04-03T01:09:33;5.00;;;1.92;;
11187;SDS011;5650;52.700;7.306;2023-04-03T01:12:20;7.22;;;1.95;;
11187;SDS011;5650;52.700;7.306;2023-04-03T01:14:50;4.47;;;2.47;;
11187;SDS011;5650;52.700;7.306;2023-04-03T01:17:29;5.35;;;1.83;;
11187;SDS011;5650;52.700;7.306;2023-04-03T01:20:13;4.18;;;2.20;;
11187;SDS011;5650;52.700;7.306;2023-04-03T01:23:15;6.35;;;2.17;;
11187;SDS011;5650;52.700;7.306;2023-04-03T01:25:57;8.25;;;1.92;;
11187;SDS011;5650;52.700;7.306;2023-04-03T01:28:32;6.50;;;2.47;;
11187;SDS011;5650;52.700;7.306;2023-04-03T01:31:02;5.78;;;2.00;;
11187;SDS011;5650;52.700;7.306;2023-04-03T01:33:41;8.50;;;2.58;;
11187;SDS011;5650;52.700;7.306;2023-04-03T01:36:10;4.60;;;2.45;;
11187;SDS011;5650;52.700;7.306;2023-04-03T01:38:40;7.60;;;2.17;;
11187;SDS011;5650;52.700;7.306;2023-04-03T01:41:12;5.30;;;2.05;;
11187;SDS011;5650;52.700;7.306;2023-04-03T01:43:40;3.88;;;2.38;;
11187;SDS011;5650;52.700;7.306;2023-04-03T01:46:11;3.60;;;2.17;;
11187;SDS011;5650;52.700;7.306;2023-04-03T01:48:38;7.57;;;2.42;;
11187;SDS011;5650;52.700;7.306;2023-04-03T01:51:13;4.85;;;2.08;;
11187;SDS011;5650;52.700;7.306;2023-04-03T01:53:44;6.68;;;2.33;;
11187;SDS011;5650;52.700;7.306;2023-04-03T01:56:11;6.57;;;2.20;;
11187;SDS011;5650;52.700;7.306;2023-04-03T01:58:38;9.68;;;2.42;;
11187;SDS011;5650;52.700;7.306;2023-04-03T02:01:08;9.63;;;2.20;;
11187;SDS011;5650;52.700;7.306;2023-04-03T02:03:44;7.30;;;2.13;;
11187;SDS011;5650;52.700;7.306;2023-04-03T02:06:13;6.38;;;2.83;;
11187;SDS011;5650;52.700;7.306;2023-04-03T02:08:40;6.97;;;2.50;;
11187;SDS011;5650;52.700;7.306;2023-04-03T02:11:13;3.83;;;1.88;;
11187;SDS011;5650;52.700;7.306;2023-04-03T02:13:41;8.05;;;2.45;;
11187;SDS011;5650;52.700;7.306;2023-04-03T02:16:09;6.00;;;2.55;;
11187;SDS011;5650;52.700;7.306;2023-04-03T02:18:43;3.55;;;2.00;;
11187;SDS011;5650;52.700;7.306;2023-04-03T02:21:16;6.22;;;2.30;;
11187;SDS011;5650;52.700;7.306;2023-04-03T02:23:43;5.25;;;2.25;;
11187;SDS011;5650;52.700;7.306;2023-04-03T02:26:14;10.05;;;2.60;;
11187;SDS011;5650;52.700;7.306;2023-04-03T02:28:42;4.43;;;2.33;;
11187;SDS011;5650;52.700;7.306;2023-04-03T02:31:12;5.47;;;2.45;;
11187;SDS011;5650;52.700;7.306;2023-04-03T02:33:42;5.57;;;2.22;;
11187;SDS011;5650;52.700;7.306;2023-04-03T02:36:17;6.20;;;2.53;;
11187;SDS011;5650;52.700;7.306;2023-04-03T02:38:44;7.05;;;3.15;;
11187;SDS011;5650;52.700;7.306;2023-04-03T02:41:13;7.05;;;2.63;;
11187;SDS011;5650;52.700;7.306;2023-04-03T02:43:41;8.07;;;2.80;;
11187;SDS011;5650;52.700;7.306;2023-04-03T02:46:16;6.35;;;2.58;;
11187;SDS011;5650;52.700;7.306;2023-04-03T02:48:43;6.43;;;2.70;;
11187;SDS011;5650;52.700;7.306;2023-04-03T02:51:11;9.93;;;2.90;;
11187;SDS011;5650;52.700;7.306;2023-04-03T02:53:45;5.10;;;3.00;;
11187;SDS011;5650;52.700;7.306;2023-04-03T02:56:12;10.38;;;3.95;;
11187;SDS011;5650;52.700;7.306;2023-04-03T02:58:48;7.25;;;3.20;;
11187;SDS011;5650;52.700;7.306;2023-04-03T03:01:21;12.77;;;4.25;;
11187;SDS011;5650;52.700;7.306;2023-04-03T03:03:56;9.93;;;5.38;;
11187;SDS011;5650;52.700;7.306;2023-04-03T03:06:33;19.08;;;8.35;;
11187;SDS011;5650;52.700;7.306;2023-04-03T03:09:07;17.25;;;9.02;;
11187;SDS011;5650;52.700;7.306;2023-04-03T03:11:38;9.43;;;4.28;;
11187;SDS011;5650;52.700;7.306;2023-04-03T03:14:05;9.90;;;3.25;;
11187;SDS011;5650;52.700;7.306;2023-04-03T03:16:42;8.05;;;3.40;;
11187;SDS011;5650;52.700;7.306;2023-04-03T03:19:09;6.82;;;2.88;;
11187;SDS011;5650;52.700;7.306;2023-04-03T03:21:40;6.93;;;2.60;;
11187;SDS011;5650;52.700;7.306;2023-04-03T03:24:11;4.63;;;2.60;;
11187;SDS011;5650;52.700;7.306;2023-04-03T03:26:42;6.75;;;3.10;;
11187;SDS011;5650;52.700;7.306;2023-04-03T03:29:15;4.53;;;2.22;;
11187;SDS011;5650;52.700;7.306;2023-04-03T03:31:43;9.70;;;2.80;;
11187;SDS011;5650;52.700;7.306;2023-04-03T03:34:10;10.48;;;2.63;;
11187;SDS011;5650;52.700;7.306;2023-04-03T03:36:38;6.35;;;2.78;;
11187;SDS011;5650;52.700;7.306;2023-04-03T03:39:13;9.25;;;2.78;;
11187;SDS011;5650;52.700;7.306;2023-04-03T03:41:43;6.65;;;2.95;;
11187;SDS011;5650;52.700;7.306;2023-04-03T03:44:13;4.43;;;2.45;;
11187;SDS011;5650;52.700;7.306;2023-04-03T03:46:43;9.30;;;3.10;;
11187;SDS011;5650;52.700;7.306;2023-04-03T03:49:13;6.55;;;2.80;;
11187;SDS011;5650;52.700;7.306;2023-04-03T03:51:40;8.68;;;3.33;;
11187;SDS011;5650;52.700;7.306;2023-04-03T03:54:07;6.03;;;2.65;;
11187;SDS011;5650;52.700;7.306;2023-04-03T03:56:44;7.30;;;2.53;;
11187;SDS011;5650;52.700;7.306;2023-04-03T03:59:12;6.00;;;2.33;;
11187;SDS011;5650;52.700;7.306;2023-04-03T04:01:42;6.40;;;2.47;;
11187;SDS011;5650;52.700;7.306;2023-04-03T04:04:09;11.75;;;3.10;;
11187;SDS011;5650;52.700;7.306;2023-04-03T04:06:39;6.85;;;2.38;;
11187;SDS011;5650;52.700;7.306;2023-04-03T04:09:09;5.70;;;2.70;;
11187;SDS011;5650;52.700;7.306;2023-04-03T04:11:46;7.88;;;2.67;;
11187;SDS011;5650;52.700;7.306;2023-04-03T04:14:13;6.57;;;2.38;;
11187;SDS011;5650;52.700;7.306;2023-04-03T04:16:40;10.73;;;2.78;;
11187;SDS011;5650;52.700;7.306;2023-04-03T04:19:13;7.68;;;2.53;;
11187;SDS011;5650;52.700;7.306;2023-04-03T04:21:43;7.80;;;2.20;;
11187;SDS011;5650;52.700;7.306;2023-04-03T04:24:13;5.65;;;2.47;;
11187;SDS011;5650;52.700;7.306;2023-04-03T04:26:40;13.88;;;2.50;;
11187;SDS011;5650;52.700;7.306;2023-04-03T04:29:11;11.65;;;2.95;;
11187;SDS011;5650;52.700;7.306;2023-04-03T04:31:41;9.07;;;3.05;;
11187;SDS011;5650;52.700;7.306;2023-04-03T04:34:09;5.53;;;2.42;;
11187;SDS011;5650;52.700;7.306;2023-04-03T04:36:41;9.50;;;2.60;;
11187;SDS011;5650;52.700;7.306;2023-04-03T04:39:14;7.13;;;2.70;;
11187;SDS011;5650;52.700;7.306;2023-04-03T04:41:44;4.57;;;2.10;;
11187;SDS011;5650;52.700;7.306;2023-04-03T04:44:15;8.88;;;2.65;;
11187;SDS011;5650;52.700;7.306;2023-04-03T04:46:42;6.47;;;2.90;;
11187;SDS011;5650;52.700;7.306;2023-04-03T04:49:10;12.20;;;2.70;;
11187;SDS011;5650;52.700;7.306;2023-04-03T04:51:37;5.13;;;2.22;;
11187;SDS011;5650;52.700;7.306;2023-04-03T04:54:10;6.78;;;2.80;;
11187;SDS011;5650;52.700;7.306;2023-04-03T04:56:43;6.57;;;2.55;;
11187;SDS011;5650;52.700;7.306;2023-04-03T04:59:15;5.57;;;2.20;;
11187;SDS011;5650;52.700;7.306;2023-04-03T05:01:43;11.02;;;2.90;;
11187;SDS011;5650;52.700;7.306;2023-04-03T05:04:10;4.97;;;2.65;;
11187;SDS011;5650;52.700;7.306;2023-04-03T05:06:40;12.25;;;3.72;;
11187;SDS011;5650;52.700;7.306;2023-04-03T05:09:11;7.60;;;2.38;;
11187;SDS011;5650;52.700;7.306;2023-04-03T05:11:41;7.18;;;2.45;;
11187;SDS011;5650;52.700;7.306;2023-04-03T05:14:12;8.90;;;2.70;;
11187;SDS011;5650;52.700;7.306;2023-04-03T05:16:48;9.43;;;2.45;;
11187;SDS011;5650;52.700;7.306;2023-04-03T05:19:18;8.18;;;3.05;;
11187;SDS011;5650;52.700;7.306;2023-04-03T05:21:48;6.13;;;2.67;;
11187;SDS011;5650;52.700;7.306;2023-04-03T05:24:15;10.30;;;2.75;;
11187;SDS011;5650;52.700;7.306;2023-04-03T05:26:43;4.72;;;2.70;;
11187;SDS011;5650;52.700;7.306;2023-04-03T05:29:10;14.20;;;3.33;;
11187;SDS011;5650;52.700;7.306;2023-04-03T05:31:45;6.38;;;2.60;;
11187;SDS011;5650;52.700;7.306;2023-04-03T05:34:12;6.60;;;3.22;;
11187;SDS011;5650;52.700;7.306;2023-04-03T05:36:45;8.70;;;2.67;;
11187;SDS011;5650;52.700;7.306;2023-04-03T05:39:13;7.45;;;2.58;;
11187;SDS011;5650;52.700;7.306;2023-04-03T05:41:40;7.15;;;2.63;;
11187;SDS011;5650;52.700;7.306;2023-04-03T05:44:16;9.40;;;3.15;;
11187;SDS011;5650;52.700;7.306;2023-04-03T05:46:44;8.77;;;3.40;;
11187;SDS011;5650;52.700;7.306;2023-04-03T05:49:12;8.32;;;2.78;;
11187;SDS011;5650;52.700;7.306;2023-04-03T05:51:39;8.68;;;2.70;;
11187;SDS011;5650;52.700;7.306;2023-04-03T05:54:16;4.68;;;2.45;;
11187;SDS011;5650;52.700;7.306;2023-04-03T05:56:55;9.23;;;2.75;;
11187;SDS011;5650;52.700;7.306;2023-04-03T05:59:22;8.23;;;2.10;;
11187;SDS011;5650;52.700;7.306;2023-04-03T06:01:55;5.07;;;1.92;;
11187;SDS011;5650;52.700;7.306;2023-04-03T06:04:29;5.55;;;1.75;;
11187;SDS011;5650;52.700;7.306;2023-04-03T06:06:56;8.63;;;2.30;;
11187;SDS011;5650;52.700;7.306;2023-04-03T06:09:25;5.85;;;1.88;;
11187;SDS011;5650;52.700;7.306;2023-04-03T06:11:57;3.92;;;1.73;;
11187;SDS011;5650;52.700;7.306;2023-04-03T06:14:27;5.05;;;2.00;;
11187;SDS011;5650;52.700;7.306;2023-04-03T06:17:01;5.63;;;2.00;;
11187;SDS011;5650;52.700;7.306;2023-04-03T06:19:35;4.65;;;1.98;;
11187;SDS011;5650;52.700;7.306;2023-04-03T06:22:02;8.40;;;2.40;;
11187;SDS011;5650;52.700;7.306;2023-04-03T06:24:30;8.77;;;2.80;;
11187;SDS011;5650;52.700;7.306;2023-04-03T06:26:58;7.18;;;2.80;;
11187;SDS011;5650;52.700;7.306;2023-04-03T06:29:27;9.77;;;2.55;;
11187;SDS011;5650;52.700;7.306;2023-04-03T06:31:55;5.10;;;2.00;;
11187;SDS011;5650;52.700;7.306;2023-04-03T06:34:23;8.10;;;2.58;;
11187;SDS011;5650;52.700;7.306;2023-04-03T06:36:50;5.78;;;2.17;;
11187;SDS011;5650;52.700;7.306;2023-04-03T06:39:19;5.38;;;2.15;;
11187;SDS011;5650;52.700;7.306;2023-04-03T06:41:50;6.45;;;2.13;;
11187;SDS011;5650;52.700;7.306;2023-04-03T06:44:18;6.55;;;2.10;;
11187;SDS011;5650;52.700;7.306;2023-04-03T06:46:45;6.88;;;2.25;;
11187;SDS011;5650;52.700;7.306;2023-04-03T06:49:16;5.75;;;2.05;;
11187;SDS011;5650;52.700;7.306;2023-04-03T06:51:48;5.75;;;1.90;;
11187;SDS011;5650;52.700;7.306;2023-04-03T06:54:15;5.18;;;1.75;;
11187;SDS011;5650;52.700;7.306;2023-04-03T06:56:52;7.10;;;1.88;;
11187;SDS011;5650;52.700;7.306;2023-04-03T06:59:25;4.43;;;1.60;;
11187;SDS011;5650;52.700;7.306;2023-04-03T07:01:59;5.95;;;1.65;;
11187;SDS011;5650;52.700;7.306;2023-04-03T07:04:26;5.57;;;2.10;;
11187;SDS011;5650;52.700;7.306;2023-04-03T07:06:55;7.88;;;1.90;;
11187;SDS011;5650;52.700;7.306;2023-04-03T07:09:22;7.05;;;2.42;;
11187;SDS011;5650;52.700;7.306;2023-04-03T07:11:49;7.65;;;2.10;;
11187;SDS011;5650;52.700;7.306;2023-04-03T07:14:16;7.93;;;3.00;;
11187;SDS011;5650;52.700;7.306;2023-04-03T07:16:44;7.38;;;2.88;;
11187;SDS011;5650;52.700;7.306;2023-04-03T07:19:11;5.32;;;1.92;;
11187;SDS011;5650;52.700;7.306;2023-04-03T07:21:38;4.60;;;1.80;;
11187;SDS011;5650;52.700;7.306;2023-04-03T07:24:11;5.40;;;2.63;;
11187;SDS011;5650;52.700;7.306;2023-04-03T07:26:48;8.13;;;3.05;;
11187;SDS011;5650;52.700;7.306;2023-04-03T07:29:19;6.47;;;3.05;;
11187;SDS011;5650;52.700;7.306;2023-04-03T07:31:46;5.50;;;2.28;;
11187;SDS011;5650;52.700;7.306;2023-04-03T07:34:21;5.95;;;1.48;;
11187;SDS011;5650;52.700;7.306;2023-04-03T07:36:51;4.47;;;1.65;;
11187;SDS011;5650;52.700;7.306;2023-04-03T07:39:26;4.88;;;1.58;;
11187;SDS011;5650;52.700;7.306;2023-04-03T07:41:53;8.48;;;1.73;;
11187;SDS011;5650;52.700;7.306;2023-04-03T07:44:21;5.57;;;1.73;;
11187;SDS011;5650;52.700;7.306;2023-04-03T07:46:51;5.72;;;1.80;;
11187;SDS011;5650;52.700;7.306;2023-04-03T07:49:20;5.75;;;1.60;;
11187;SDS011;5650;52.700;7.306;2023-04-03T07:51:51;7.00;;;1.70;;
11187;SDS011;5650;52.700;7.306;2023-04-03T07:54:21;5.68;;;1.58;;
11187;SDS011;5650;52.700;7.306;2023-04-03T07:56:49;3.78;;;1.70;;
11187;SDS011;5650;52.700;7.306;2023-04-03T07:59:17;4.32;;;1.33;;
11187;SDS011;5650;52.700;7.306;2023-04-03T08:01:56;3.17;;;1.55;;
11187;SDS011;5650;52.700;7.306;2023-04-03T08:04:23;5.57;;;1.85;;
11187;SDS011;5650;52.700;7.306;2023-04-03T08:06:51;4.97;;;1.67;;
11187;SDS011;5650;52.700;7.306;2023-04-03T08:09:20;3.63;;;1.40;;
11187;SDS011;5650;52.700;7.306;2023-04-03T08:11:53;7.75;;;1.67;;
11187;SDS011;5650;52.700;7.306;2023-04-03T08:14:24;4.80;;;1.45;;
11187;SDS011;5650;52.700;7.306;2023-04-03T08:16:51;5.78;;;1.52;;
11187;SDS011;5650;52.700;7.306;2023-04-03T08:19:18;5.50;;;1.55;;
11187;SDS011;5650;52.700;7.306;2023-04-03T08:21:48;4.57;;;1.70;;
11187;SDS011;5650;52.700;7.306;2023-04-03T08:24:15;4.15;;;1.95;;
11187;SDS011;5650;52.700;7.306;2023-04-03T08:26:42;6.35;;;2.08;;
11187;SDS011;5650;52.700;7.306;2023-04-03T08:29:20;3.78;;;1.48;;
11187;SDS011;5650;52.700;7.306;2023-04-03T08:31:47;2.72;;;1.27;;
11187;SDS011;5650;52.700;7.306;2023-04-03T08:34:15;4.35;;;1.50;;
11187;SDS011;5650;52.700;7.306;2023-04-03T08:36:43;5.78;;;1.90;;
11187;SDS011;5650;52.700;7.306;2023-04-03T08:39:10;2.22;;;1.10;;
11187;SDS011;5650;52.700;7.306;2023-04-03T08:41:38;4.55;;;1.52;;
11187;SDS011;5650;52.700;7.306;2023-04-03T08:44:10;3.25;;;1.40;;
11187;SDS011;5650;52.700;7.306;2023-04-03T08:46:51;3.17;;;1.50;;
11187;SDS011;5650;52.700;7.306;2023-04-03T08:49:32;6.00;;;2.03;;
11187;SDS011;5650;52.700;7.306;2023-04-03T08:52:02;5.15;;;1.60;;
11187;SDS011;5650;52.700;7.306;2023-04-03T08:54:54;4.28;;;1.50;;
11187;SDS011;5650;52.700;7.306;2023-04-03T08:57:30;6.55;;;1.92;;
11187;SDS011;5650;52.700;7.306;2023-04-03T09:00:04;3.20;;;1.30;;
11187;SDS011;5650;52.700;7.306;2023-04-03T09:02:38;6.43;;;1.75;;
11187;SDS011;5650;52.700;7.306;2023-04-03T09:05:13;2.30;;;1.30;;
11187;SDS011;5650;52.700;7.306;2023-04-03T09:07:43;5.05;;;1.23;;
11187;SDS011;5650;52.700;7.306;2023-04-03T09:10:14;3.47;;;1.30;;
11187;SDS011;5650;52.700;7.306;2023-04-03T09:12:42;4.97;;;1.30;;
11187;SDS011;5650;52.700;7.306;2023-04-03T09:15:20;4.95;;;1.73;;
11187;SDS011;5650;52.700;7.306;2023-04-03T09:18:02;3.05;;;1.42;;
11187;SDS011;5650;52.700;7.306;2023-04-03T09:20:39;5.65;;;1.52;;
11187;SDS011;5650;52.700;7.306;2023-04-03T09:23:30;2.83;;;1.30;;
11187;SDS011;5650;52.700;7.306;2023-04-03T09:26:07;3.00;;;1.20;;
11187;SDS011;5650;52.700;7.306;2023-04-03T09:28:41;2.28;;;0.98;;
11187;SDS011;5650;52.700;7.306;2023-04-03T09:31:16;4.15;;;1.70;;
11187;SDS011;5650;52.700;7.306;2023-04-03T09:33:53;2.53;;;1.00;;
11187;SDS011;5650;52.700;7.306;2023-04-03T09:36:45;2.08;;;1.20;;
11187;SDS011;5650;52.700;7.306;2023-04-03T09:39:14;2.58;;;1.30;;
11187;SDS011;5650;52.700;7.306;2023-04-03T09:41:56;5.10;;;1.90;;
11187;SDS011;5650;52.700;7.306;2023-04-03T09:44:27;5.88;;;1.42;;
11187;SDS011;5650;52.700;7.306;2023-04-03T09:46:56;4.32;;;1.20;;
11187;SDS011;5650;52.700;7.306;2023-04-03T09:49:25;4.18;;;1.10;;
11187;SDS011;5650;52.700;7.306;2023-04-03T09:51:56;3.08;;;1.40;;
11187;SDS011;5650;52.700;7.306;2023-04-03T09:54:30;3.33;;;1.27;;
11187;SDS011;5650;52.700;7.306;2023-04-03T09:57:10;2.42;;;1.33;;
11187;SDS011;5650;52.700;7.306;2023-04-03T09:59:43;3.03;;;1.25;;
11187;SDS011;5650;52.700;7.306;2023-04-03T10:02:21;4.47;;;1.10;;
11187;SDS011;5650;52.700;7.306;2023-04-03T10:05:27;4.35;;;1.25;;
11187;SDS011;5650;52.700;7.306;2023-04-03T10:08:25;4.03;;;1.08;;
11187;SDS011;5650;52.700;7.306;2023-04-03T10:13:50;4.43;;;1.58;;
11187;SDS011;5650;52.700;7.306;2023-04-03T10:16:23;3.63;;;1.20;;
11187;SDS011;5650;52.700;7.306;2023-04-03T10:19:05;4.05;;;1.30;;
11187;SDS011;5650;52.700;7.306;2023-04-03T10:21:47;3.47;;;1.08;;
11187;SDS011;5650;52.700;7.306;2023-04-03T10:24:20;4.72;;;1.48;;
11187;SDS011;5650;52.700;7.306;2023-04-03T10:26:54;3.70;;;1.40;;
11187;SDS011;5650;52.700;7.306;2023-04-03T10:29:34;4.00;;;1.00;;
11187;SDS011;5650;52.700;7.306;2023-04-03T10:35:18;3.97;;;1.38;;
11187;SDS011;5650;52.700;7.306;2023-04-03T10:37:59;3.22;;;1.48;;
11187;SDS011;5650;52.700;7.306;2023-04-03T10:40:32;3.58;;;1.92;;
11187;SDS011;5650;52.700;7.306;2023-04-03T10:43:10;1.70;;;1.15;;
11187;SDS011;5650;52.700;7.306;2023-04-03T10:45:48;3.53;;;1.30;;
11187;SDS011;5650;52.700;7.306;2023-04-03T10:48:25;3.80;;;1.30;;
11187;SDS011;5650;52.700;7.306;2023-04-03T10:51:12;5.10;;;1.30;;
11187;SDS011;5650;52.700;7.306;2023-04-03T10:53:59;4.45;;;1.13;;
11187;SDS011;5650;52.700;7.306;2023-04-03T10:56:32;3.90;;;1.30;;
11187;SDS011;5650;52.700;7.306;2023-04-03T10:59:18;3.10;;;1.30;;
11187;SDS011;5650;52.700;7.306;2023-04-03T11:01:52;3.25;;;0.95;;
11187;SDS011;5650;52.700;7.306;2023-04-03T11:04:26;4.25;;;1.35;;
11187;SDS011;5650;52.700;7.306;2023-04-03T11:06:57;4.10;;;1.60;;
11187;SDS011;5650;52.700;7.306;2023-04-03T11:09:30;4.68;;;1.70;;
11187;SDS011;5650;52.700;7.306;2023-04-03T11:12:06;5.05;;;1.17;;
11187;SDS011;5650;52.700;7.306;2023-04-03T11:14:47;4.68;;;1.30;;
11187;SDS011;5650;52.700;7.306;2023-04-03T11:17:19;3.33;;;1.00;;
11187;SDS011;5650;52.700;7.306;2023-04-03T11:19:58;2.53;;;1.20;;
11187;SDS011;5650;52.700;7.306;2023-04-03T11:22:32;1.55;;;0.95;;
11187;SDS011;5650;52.700;7.306;2023-04-03T11:25:12;4.00;;;1.33;;
11187;SDS011;5650;52.700;7.306;2023-04-03T11:27:46;4.47;;;1.30;;
11187;SDS011;5650;52.700;7.306;2023-04-03T11:30:18;2.25;;;1.20;;
11187;SDS011;5650;52.700;7.306;2023-04-03T11:33:00;3.58;;;1.42;;
11187;SDS011;5650;52.700;7.306;2023-04-03T11:35:59;3.42;;;1.10;;
11187;SDS011;5650;52.700;7.306;2023-04-03T11:38:36;4.32;;;1.15;;
11187;SDS011;5650;52.700;7.306;2023-04-03T11:41:09;3.50;;;1.17;;
11187;SDS011;5650;52.700;7.306;2023-04-03T11:43:40;2.60;;;1.10;;
11187;SDS011;5650;52.700;7.306;2023-04-03T11:46:08;3.35;;;1.15;;
11187;SDS011;5650;52.700;7.306;2023-04-03T11:48:52;2.20;;;1.20;;
11187;SDS011;5650;52.700;7.306;2023-04-03T11:51:43;4.65;;;1.50;;
11187;SDS011;5650;52.700;7.306;2023-04-03T12:00:47;3.08;;;1.20;;
11187;SDS011;5650;52.700;7.306;2023-04-03T12:09:34;3.10;;;1.13;;
11187;SDS011;5650;52.700;7.306;2023-04-03T12:12:33;2.70;;;1.25;;
11187;SDS011;5650;52.700;7.306;2023-04-03T12:21:08;3.63;;;1.52;;
11187;SDS011;5650;52.700;7.306;2023-04-03T12:27:03;3.90;;;1.20;;
11187;SDS011;5650;52.700;7.306;2023-04-03T12:29:42;4.00;;;1.58;;
11187;SDS011;5650;52.700;7.306;2023-04-03T12:32:18;4.35;;;1.40;;
11187;SDS011;5650;52.700;7.306;2023-04-03T12:38:10;3.60;;;1.02;;
11187;SDS011;5650;52.700;7.306;2023-04-03T12:40:56;3.35;;;0.93;;
11187;SDS011;5650;52.700;7.306;2023-04-03T12:43:39;2.08;;;1.00;;
11187;SDS011;5650;52.700;7.306;2023-04-03T12:46:14;4.55;;;1.58;;
11187;SDS011;5650;52.700;7.306;2023-04-03T12:48:55;1.73;;;1.02;;
11187;SDS011;5650;52.700;7.306;2023-04-03T12:51:26;4.28;;;1.45;;
11187;SDS011;5650;52.700;7.306;2023-04-03T12:54:01;4.43;;;1.20;;
11187;SDS011;5650;52.700;7.306;2023-04-03T12:56:31;2.58;;;1.02;;
11187;SDS011;5650;52.700;7.306;2023-04-03T12:59:15;3.10;;;1.23;;
11187;SDS011;5650;52.700;7.306;2023-04-03T13:01:52;2.80;;;1.52;;
11187;SDS011;5650;52.700;7.306;2023-04-03T13:04:25;2.80;;;1.20;;
11187;SDS011;5650;52.700;7.306;2023-04-03T13:06:56;2.58;;;1.08;;
11187;SDS011;5650;52.700;7.306;2023-04-03T13:09:25;2.22;;;1.40;;
11187;SDS011;5650;52.700;7.306;2023-04-03T13:11:54;3.30;;;1.38;;
11187;SDS011;5650;52.700;7.306;2023-04-03T13:14:34;4.05;;;2.22;;
11187;SDS011;5650;52.700;7.306;2023-04-03T13:17:10;5.47;;;2.72;;
11187;SDS011;5650;52.700;7.306;2023-04-03T13:19:44;3.28;;;2.00;;
11187;SDS011;5650;52.700;7.306;2023-04-03T13:22:16;3.72;;;1.50;;
11187;SDS011;5650;52.700;7.306;2023-04-03T13:24:54;3.28;;;1.65;;
11187;SDS011;5650;52.700;7.306;2023-04-03T13:27:27;3.47;;;1.65;;
11187;SDS011;5650;52.700;7.306;2023-04-03T13:29:57;3.33;;;1.10;;
11187;SDS011;5650;52.700;7.306;2023-04-03T13:32:27;3.10;;;1.40;;
11187;SDS011;5650;52.700;7.306;2023-04-03T13:35:00;2.55;;;1.25;;
11187;SDS011;5650;52.700;7.306;2023-04-03T13:37:30;5.72;;;1.40;;
11187;SDS011;5650;52.700;7.306;2023-04-03T13:40:09;3.75;;;1.55;;
11187;SDS011;5650;52.700;7.306;2023-04-03T13:42:39;2.85;;;1.20;;
11187;SDS011;5650;52.700;7.306;2023-04-03T13:48:07;1.92;;;1.00;;
11187;SDS011;5650;52.700;7.306;2023-04-03T13:50:58;3.75;;;1.25;;
11187;SDS011;5650;52.700;7.306;2023-04-03T13:53:29;4.35;;;1.35;;
11187;SDS011;5650;52.700;7.306;2023-04-03T13:55:59;3.10;;;1.30;;
11187;SDS011;5650;52.700;7.306;2023-04-03T13:58:57;3.03;;;1.55;;
11187;SDS011;5650;52.700;7.306;2023-04-03T14:01:32;3.90;;;1.20;;
11187;SDS011;5650;52.700;7.306;2023-04-03T14:04:15;2.30;;;1.20;;
11187;SDS011;5650;52.700;7.306;2023-04-03T14:06:46;2.85;;;1.48;;
11187;SDS011;5650;52.700;7.306;2023-04-03T14:09:20;2.45;;;1.15;;
11187;SDS011;5650;52.700;7.306;2023-04-03T14:11:50;2.85;;;1.38;;
11187;SDS011;5650;52.700;7.306;2023-04-03T14:14:21;2.67;;;1.27;;
11187;SDS011;5650;52.700;7.306;2023-04-03T14:17:02;3.33;;;1.40;;
11187;SDS011;5650;52.700;7.306;2023-04-03T14:19:36;2.30;;;1.33;;
11187;SDS011;5650;52.700;7.306;2023-04-03T14:22:14;2.88;;;1.63;;
11187;SDS011;5650;52.700;7.306;2023-04-03T14:24:44;3.33;;;1.40;;
11187;SDS011;5650;52.700;7.306;2023-04-03T14:27:16;2.72;;;1.25;;
11187;SDS011;5650;52.700;7.306;2023-04-03T14:29:45;3.22;;;1.58;;
11187;SDS011;5650;52.700;7.306;2023-04-03T14:32:13;2.58;;;1.30;;
11187;SDS011;5650;52.700;7.306;2023-04-03T14:34:45;4.75;;;1.50;;
11187;SDS011;5650;52.700;7.306;2023-04-03T14:37:16;6.05;;;1.73;;
11187;SDS011;5650;52.700;7.306;2023-04-03T14:39:48;2.95;;;1.40;;
11187;SDS011;5650;52.700;7.306;2023-04-03T14:42:22;2.92;;;1.42;;
11187;SDS011;5650;52.700;7.306;2023-04-03T14:45:00;4.13;;;1.70;;
11187;SDS011;5650;52.700;7.306;2023-04-03T14:47:29;3.35;;;1.70;;
11187;SDS011;5650;52.700;7.306;2023-04-03T14:49:56;2.40;;;1.45;;
11187;SDS011;5650;52.700;7.306;2023-04-03T14:52:32;3.60;;;1.67;;
11187;SDS011;5650;52.700;7.306;2023-04-03T14:55:02;5.53;;;1.75;;
11187;SDS011;5650;52.700;7.306;2023-04-03T14:57:31;1.52;;;1.15;;
11187;SDS011;5650;52.700;7.306;2023-04-03T15:00:11;5.20;;;1.60;;
11187;SDS011;5650;52.700;7.306;2023-04-03T15:02:40;3.78;;;1.50;;
11187;SDS011;5650;52.700;7.306;2023-04-03T15:05:08;3.25;;;1.60;;
11187;SDS011;5650;52.700;7.306;2023-04-03T15:07:44;3.15;;;1.40;;
11187;SDS011;5650;52.700;7.306;2023-04-03T15:10:18;4.40;;;1.35;;
11187;SDS011;5650;52.700;7.306;2023-04-03T15:12:47;2.72;;;1.40;;
11187;SDS011;5650;52.700;7.306;2023-04-03T15:15:15;2.88;;;1.60;;
11187;SDS011;5650;52.700;7.306;2023-04-03T15:17:44;2.53;;;1.10;;
11187;SDS011;5650;52.700;7.306;2023-04-03T15:20:14;2.45;;;1.52;;
11187;SDS011;5650;52.700;7.306;2023-04-03T15:22:45;2.65;;;1.52;;
11187;SDS011;5650;52.700;7.306;2023-04-03T15:25:13;2.85;;;1.52;;
11187;SDS011;5650;52.700;7.306;2023-04-03T15:27:41;3.17;;;1.40;;
11187;SDS011;5650;52.700;7.306;2023-04-03T15:30:17;3.60;;;1.48;;
11187;SDS011;5650;52.700;7.306;2023-04-03T15:32:46;3.58;;;1.60;;
11187;SDS011;5650;52.700;7.306;2023-04-03T15:35:14;4.97;;;1.88;;
11187;SDS011;5650;52.700;7.306;2023-04-03T15:37:46;3.92;;;1.55;;
11187;SDS011;5650;52.700;7.306;2023-04-03T15:40:13;3.05;;;1.75;;
11187;SDS011;5650;52.700;7.306;2023-04-03T15:42:43;2.65;;;1.33;;
11187;SDS011;5650;52.700;7.306;2023-04-03T15:45:11;2.90;;;1.63;;
11187;SDS011;5650;52.700;7.306;2023-04-03T15:47:38;4.50;;;1.75;;
11187;SDS011;5650;52.700;7.306;2023-04-03T15:50:06;4.43;;;1.75;;
11187;SDS011;5650;52.700;7.306;2023-04-03T15:52:33;8.80;;;1.58;;
11187;SDS011;5650;52.700;7.306;2023-04-03T15:55:05;2.20;;;1.27;;
11187;SDS011;5650;52.700;7.306;2023-04-03T15:57:32;4.07;;;1.80;;
11187;SDS011;5650;52.700;7.306;2023-04-03T16:00:05;3.08;;;1.83;;
11187;SDS011;5650;52.700;7.306;2023-04-03T16:02:33;5.80;;;1.80;;
11187;SDS011;5650;52.700;7.306;2023-04-03T16:05:03;3.45;;;1.90;;
11187;SDS011;5650;52.700;7.306;2023-04-03T16:07:39;2.60;;;1.45;;